AAL404 KDFW-KIAH
Flight info
| Callsign | AAL404 |
|---|---|
| Flight time | N/A |
| Altitude | 25000 |
| Route | DARTZ9 TORNN GUSHR3 |
| Aircraft | A333/H-SDE3GHIJ2J3J5M1RVWXY/LB2D1 |
Departure
| Time | 2026-05-08 03:06 |
|---|---|
| Airport | Dallas Fort Worth International Airport (KDFW) |
Arrival
| Time | N/A |
|---|---|
| Airport | George Bush Intercontinental Airport (KIAH) |
| Time | Latitude | Longitude | Altitude | Speed | Heading |
|---|---|---|---|---|---|
| 2026-05-08 02:34 | 32.89769 | -97.04564 | 602 ft | 0 kts | 92° |
| 2026-05-08 02:51 | 32.89769 | -97.04568 | 602 ft | 0 kts | 92° |
| 2026-05-08 02:51 | 32.89769 | -97.04570 | 602 ft | 2 kts | 92° |
| 2026-05-08 02:51 | 32.89770 | -97.04589 | 602 ft | 2 kts | 92° |
| 2026-05-08 02:51 | 32.89770 | -97.04608 | 602 ft | 2 kts | 81° |
| 2026-05-08 02:52 | 32.89766 | -97.04627 | 602 ft | 2 kts | 65° |
| 2026-05-08 02:52 | 32.89758 | -97.04643 | 602 ft | 2 kts | 50° |
| 2026-05-08 02:52 | 32.89747 | -97.04657 | 602 ft | 2 kts | 34° |
| 2026-05-08 02:52 | 32.89732 | -97.04666 | 602 ft | 2 kts | 16° |
| 2026-05-08 02:53 | 32.89716 | -97.04669 | 602 ft | 2 kts | 1° |
| 2026-05-08 02:53 | 32.89700 | -97.04669 | 602 ft | 2 kts | 357° |
| 2026-05-08 02:53 | 32.89684 | -97.04668 | 602 ft | 2 kts | 0° |
| 2026-05-08 02:53 | 32.89683 | -97.04668 | 602 ft | 0 kts | 0° |
| 2026-05-08 02:58 | 32.89686 | -97.04668 | 602 ft | 2 kts | 0° |
| 2026-05-08 02:58 | 32.89704 | -97.04672 | 601 ft | 3 kts | 339° |
| 2026-05-08 02:59 | 32.89716 | -97.04699 | 601 ft | 5 kts | 285° |
| 2026-05-08 02:59 | 32.89737 | -97.04747 | 601 ft | 8 kts | 315° |
| 2026-05-08 02:59 | 32.89789 | -97.04764 | 601 ft | 9 kts | 0° |
| 2026-05-08 02:59 | 32.89859 | -97.04763 | 601 ft | 11 kts | 0° |
| 2026-05-08 03:00 | 32.89941 | -97.04763 | 602 ft | 12 kts | 360° |
| 2026-05-08 03:00 | 32.90032 | -97.04763 | 603 ft | 14 kts | 0° |
| 2026-05-08 03:00 | 32.90142 | -97.04763 | 601 ft | 17 kts | 360° |
| 2026-05-08 03:00 | 32.90271 | -97.04762 | 600 ft | 19 kts | 0° |
| 2026-05-08 03:01 | 32.90411 | -97.04762 | 604 ft | 21 kts | 0° |
| 2026-05-08 03:01 | 32.90555 | -97.04762 | 601 ft | 21 kts | 360° |
| 2026-05-08 03:01 | 32.90704 | -97.04762 | 601 ft | 22 kts | 360° |
| 2026-05-08 03:01 | 32.90853 | -97.04761 | 603 ft | 21 kts | 0° |
| 2026-05-08 03:02 | 32.90987 | -97.04770 | 616 ft | 18 kts | 344° |
| 2026-05-08 03:02 | 32.91107 | -97.04793 | 619 ft | 17 kts | 359° |
| 2026-05-08 03:02 | 32.91224 | -97.04794 | 622 ft | 16 kts | 1° |
| 2026-05-08 03:02 | 32.91337 | -97.04792 | 622 ft | 16 kts | 1° |
| 2026-05-08 03:03 | 32.91457 | -97.04792 | 625 ft | 18 kts | 359° |
| 2026-05-08 03:03 | 32.91558 | -97.04823 | 626 ft | 13 kts | 300° |
| 2026-05-08 03:03 | 32.91564 | -97.04896 | 619 ft | 0 kts | 270° |
| 2026-05-08 03:04 | 32.91564 | -97.04899 | 619 ft | 2 kts | 270° |
| 2026-05-08 03:04 | 32.91564 | -97.04937 | 615 ft | 6 kts | 270° |
| 2026-05-08 03:04 | 32.91564 | -97.04989 | 615 ft | 7 kts | 270° |
| 2026-05-08 03:04 | 32.91557 | -97.05052 | 627 ft | 8 kts | 243° |
| 2026-05-08 03:05 | 32.91518 | -97.05071 | 624 ft | 0 kts | 181° |
| 2026-05-08 03:05 | 32.91428 | -97.05074 | 623 ft | 43 kts | 180° |
| 2026-05-08 03:05 | 32.90862 | -97.05075 | 622 ft | 118 kts | 180° |
| 2026-05-08 03:05 | 32.89817 | -97.05085 | 672 ft | 176 kts | 179° |
| 2026-05-08 03:06 | 32.88542 | -97.05058 | 1262 ft | 183 kts | 178° |
| 2026-05-08 03:06 | 32.87245 | -97.05049 | 1825 ft | 189 kts | 179° |
| 2026-05-08 03:06 | 32.85912 | -97.05070 | 2413 ft | 194 kts | 180° |
| 2026-05-08 03:06 | 32.84542 | -97.05100 | 3019 ft | 200 kts | 180° |
| 2026-05-08 03:07 | 32.83135 | -97.05132 | 3602 ft | 205 kts | 180° |
| 2026-05-08 03:07 | 32.81655 | -97.05166 | 4033 ft | 218 kts | 181° |
| 2026-05-08 03:07 | 32.80105 | -97.05203 | 4572 ft | 228 kts | 181° |
| 2026-05-08 03:07 | 32.78480 | -97.05243 | 5141 ft | 238 kts | 182° |
| 2026-05-08 03:08 | 32.76797 | -97.05283 | 5661 ft | 244 kts | 182° |
| 2026-05-08 03:08 | 32.75100 | -97.05324 | 6221 ft | 244 kts | 183° |
| 2026-05-08 03:08 | 32.73404 | -97.05364 | 6746 ft | 244 kts | 184° |
| 2026-05-08 03:08 | 32.71675 | -97.05406 | 7241 ft | 257 kts | 184° |
| 2026-05-08 03:09 | 32.69834 | -97.05439 | 7713 ft | 272 kts | 183° |
| 2026-05-08 03:09 | 32.67929 | -97.05461 | 8184 ft | 275 kts | 184° |
| 2026-05-08 03:09 | 32.66012 | -97.05480 | 8648 ft | 276 kts | 184° |
| 2026-05-08 03:09 | 32.64098 | -97.05499 | 9156 ft | 275 kts | 185° |
| 2026-05-08 03:10 | 32.62165 | -97.05477 | 9655 ft | 281 kts | 180° |
| 2026-05-08 03:10 | 32.60228 | -97.04980 | 10130 ft | 292 kts | 163° |
| 2026-05-08 03:10 | 32.58351 | -97.03828 | 10611 ft | 314 kts | 154° |
| 2026-05-08 03:10 | 32.56440 | -97.02417 | 11075 ft | 332 kts | 152° |
| 2026-05-08 03:11 | 32.54470 | -97.00908 | 11647 ft | 331 kts | 151° |
| 2026-05-08 03:11 | 32.52522 | -96.99393 | 12242 ft | 342 kts | 151° |
| 2026-05-08 03:11 | 32.50484 | -96.97823 | 12735 ft | 356 kts | 152° |
| 2026-05-08 03:11 | 32.48390 | -96.96216 | 13235 ft | 362 kts | 152° |
| 2026-05-08 03:12 | 32.46265 | -96.94587 | 13740 ft | 366 kts | 152° |
| 2026-05-08 03:12 | 32.44115 | -96.92943 | 14210 ft | 369 kts | 152° |
| 2026-05-08 03:12 | 32.41948 | -96.91289 | 14666 ft | 372 kts | 152° |
| 2026-05-08 03:12 | 32.39771 | -96.89628 | 15136 ft | 373 kts | 152° |
| 2026-05-08 03:13 | 32.37583 | -96.87961 | 15617 ft | 375 kts | 152° |
| 2026-05-08 03:13 | 32.35380 | -96.86285 | 16101 ft | 378 kts | 152° |
| 2026-05-08 03:13 | 32.33154 | -96.84593 | 16580 ft | 384 kts | 152° |
| 2026-05-08 03:13 | 32.30878 | -96.82867 | 17082 ft | 392 kts | 152° |
| 2026-05-08 03:14 | 32.28509 | -96.81249 | 17589 ft | 394 kts | 160° |
| 2026-05-08 03:14 | 32.25954 | -96.80062 | 18115 ft | 396 kts | 166° |
| 2026-05-08 03:14 | 32.23328 | -96.79024 | 18587 ft | 400 kts | 168° |
| 2026-05-08 03:14 | 32.21531 | -96.78332 | 18893 ft | 404 kts | 168° |
| 2026-05-08 03:15 | 32.18881 | -96.77312 | 19349 ft | 408 kts | 168° |
| 2026-05-08 03:15 | 32.16168 | -96.76264 | 19810 ft | 413 kts | 168° |
| 2026-05-08 03:15 | 32.13426 | -96.75202 | 20269 ft | 417 kts | 168° |
| 2026-05-08 03:15 | 32.10622 | -96.74114 | 20768 ft | 421 kts | 168° |
| 2026-05-08 03:16 | 32.07832 | -96.73030 | 21262 ft | 424 kts | 169° |
| 2026-05-08 03:16 | 32.05021 | -96.71939 | 21762 ft | 427 kts | 169° |
| 2026-05-08 03:16 | 32.02191 | -96.70840 | 22273 ft | 429 kts | 169° |
| 2026-05-08 03:16 | 31.99346 | -96.69736 | 22791 ft | 432 kts | 170° |
| 2026-05-08 03:17 | 31.96523 | -96.68641 | 23308 ft | 434 kts | 170° |
| 2026-05-08 03:17 | 31.93615 | -96.67513 | 23803 ft | 435 kts | 170° |
| 2026-05-08 03:17 | 31.90733 | -96.66397 | 24255 ft | 437 kts | 171° |
| 2026-05-08 03:17 | 31.87841 | -96.65277 | 24673 ft | 438 kts | 171° |
| 2026-05-08 03:18 | 31.84942 | -96.64157 | 24964 ft | 443 kts | 171° |
| 2026-05-08 03:18 | 31.81975 | -96.63016 | 25034 ft | 452 kts | 171° |
| 2026-05-08 03:18 | 31.78968 | -96.61856 | 25042 ft | 457 kts | 170° |
| 2026-05-08 03:18 | 31.75947 | -96.60688 | 25044 ft | 457 kts | 170° |
| 2026-05-08 03:19 | 31.72961 | -96.59526 | 25049 ft | 445 kts | 170° |
| 2026-05-08 03:19 | 31.70018 | -96.58388 | 25046 ft | 448 kts | 171° |
| 2026-05-08 03:19 | 31.67026 | -96.57241 | 25039 ft | 455 kts | 171° |
| 2026-05-08 03:19 | 31.64008 | -96.56082 | 25040 ft | 457 kts | 170° |
| 2026-05-08 03:20 | 31.60991 | -96.54921 | 25034 ft | 456 kts | 170° |
| 2026-05-08 03:20 | 31.57987 | -96.53764 | 25040 ft | 453 kts | 170° |
| 2026-05-08 03:20 | 31.54997 | -96.52613 | 25041 ft | 452 kts | 170° |
| 2026-05-08 03:20 | 31.52024 | -96.51365 | 25038 ft | 458 kts | 165° |